createdAt,value
2018-09-02T00:00:25.149Z,14.03
2018-09-02T00:03:01.951Z,13.87
2018-09-02T00:05:37.776Z,14.57
2018-09-02T00:08:13.722Z,14.80
2018-09-02T00:10:49.576Z,12.43
2018-09-02T00:13:25.433Z,13.20
2018-09-02T00:16:01.369Z,13.43
2018-09-02T00:18:37.310Z,14.77
2018-09-02T00:21:13.262Z,14.57
2018-09-02T00:23:49.463Z,15.57
2018-09-02T00:26:25.172Z,15.53
2018-09-02T00:29:00.945Z,15.77
2018-09-02T00:31:37.280Z,15.63
2018-09-02T00:34:13.277Z,15.73
2018-09-02T00:36:49.019Z,14.27
2018-09-02T00:39:25.696Z,16.30
2018-09-02T00:42:01.325Z,16.23
2018-09-02T00:44:37.666Z,14.63
2018-09-02T00:47:13.460Z,17.17
2018-09-02T00:49:49.216Z,15.40
2018-09-02T00:52:25.436Z,15.63
2018-09-02T00:55:01.229Z,15.03
2018-09-02T00:57:37.084Z,15.87
2018-09-02T01:00:13.653Z,16.03
2018-09-02T01:02:49.409Z,15.43
2018-09-02T01:05:25.516Z,14.20
2018-09-02T01:08:01.340Z,13.87
2018-09-02T01:10:37.282Z,14.70
2018-09-02T01:13:13.529Z,15.17
2018-09-02T01:15:49.302Z,14.87
2018-09-02T01:18:25.136Z,15.67
2018-09-02T01:21:01.779Z,14.93
2018-09-02T01:23:38.405Z,14.07
2018-09-02T01:26:14.220Z,13.67
2018-09-02T01:28:50.075Z,15.97
2018-09-02T01:31:26.091Z,15.37
2018-09-02T01:34:02.619Z,17.00
2018-09-02T01:36:38.570Z,16.07
2018-09-02T01:39:15.414Z,17.70
2018-09-02T01:43:15.557Z,17.10
2018-09-02T01:45:51.389Z,17.87
2018-09-02T01:48:27.186Z,17.37
2018-09-02T01:51:02.954Z,16.67
2018-09-02T01:53:38.838Z,18.70
2018-09-02T01:56:15.200Z,19.07
2018-09-02T01:58:51.472Z,18.67
2018-09-02T02:01:27.520Z,17.47
2018-09-02T02:04:03.522Z,17.63
2018-09-02T02:06:39.297Z,18.57
2018-09-02T02:09:15.185Z,16.93
2018-09-02T02:11:50.997Z,18.27
2018-09-02T02:14:26.938Z,15.50
2018-09-02T02:17:03.896Z,15.17
2018-09-02T02:19:39.996Z,15.43
2018-09-02T02:22:15.722Z,15.90
2018-09-02T02:24:51.487Z,16.13
2018-09-02T02:27:27.339Z,16.20
2018-09-02T02:30:03.453Z,16.43
2018-09-02T02:32:39.274Z,15.77
2018-09-02T02:35:15.151Z,16.03
2018-09-02T02:37:50.886Z,16.20
2018-09-02T02:40:26.697Z,16.37
2018-09-02T02:43:02.483Z,17.23
2018-09-02T02:45:38.786Z,17.80
2018-09-02T02:48:14.679Z,17.37
2018-09-02T02:50:50.623Z,16.60
2018-09-02T02:53:27.153Z,18.50
2018-09-02T02:56:02.887Z,18.80
2018-09-02T02:58:39.070Z,21.67
2018-09-02T03:01:15.003Z,19.33
2018-09-02T03:03:50.746Z,21.73
2018-09-02T03:06:27.424Z,21.67
2018-09-02T03:09:03.871Z,18.70
2018-09-02T03:11:40.085Z,19.10
2018-09-02T03:14:15.858Z,20.53
2018-09-02T03:16:51.711Z,19.07
2018-09-02T03:19:27.625Z,19.57
2018-09-02T03:22:03.420Z,18.93
2018-09-02T03:24:39.162Z,17.20
2018-09-02T03:27:14.981Z,18.13
2018-09-02T03:29:50.762Z,19.20
2018-09-02T03:32:26.623Z,18.23
2018-09-02T03:35:02.878Z,19.33
2018-09-02T03:37:38.784Z,20.63
2018-09-02T03:40:14.518Z,22.40
2018-09-02T03:42:50.271Z,22.37
2018-09-02T03:45:26.033Z,22.40
2018-09-02T03:48:02.017Z,21.57
2018-09-02T03:50:37.714Z,19.50
2018-09-02T03:53:13.532Z,20.37
2018-09-02T03:55:49.246Z,19.90
2018-09-02T03:58:25.701Z,23.00
2018-09-02T04:01:03.501Z,22.70
2018-09-02T04:03:40.204Z,23.43
2018-09-02T04:06:16.230Z,22.17
2018-09-02T04:08:51.892Z,22.20
2018-09-02T04:11:28.127Z,21.90
2018-09-02T04:14:04.607Z,21.90
2018-09-02T04:16:45.350Z,21.50
2018-09-02T04:19:21.269Z,20.47
2018-09-02T04:21:57.944Z,18.67
2018-09-02T04:24:33.790Z,20.57
2018-09-02T04:27:09.701Z,22.47
2018-09-02T04:29:45.558Z,20.00
2018-09-02T04:32:21.327Z,28.97
2018-09-02T04:34:57.330Z,25.60
2018-09-02T04:37:45.206Z,26.13
2018-09-02T04:40:21.962Z,24.17
2018-09-02T04:42:57.733Z,25.30
2018-09-02T04:45:33.387Z,24.27
2018-09-02T04:48:10.066Z,23.03
2018-09-02T04:50:50.095Z,24.07
2018-09-02T04:53:25.817Z,32.33
2018-09-02T04:56:02.266Z,25.20
2018-09-02T04:58:38.028Z,22.73
2018-09-02T05:01:13.844Z,27.20
2018-09-02T05:03:49.774Z,29.87
2018-09-02T05:06:26.279Z,27.07
2018-09-02T05:09:02.038Z,25.67
2018-09-02T05:11:38.144Z,25.20
2018-09-02T05:14:23.095Z,27.03
2018-09-02T05:16:59.046Z,26.30
2018-09-02T05:19:35.646Z,28.27
2018-09-02T05:22:13.494Z,26.73
2018-09-02T05:24:49.921Z,24.30
2018-09-02T05:27:26.939Z,31.30
2018-09-02T05:30:03.874Z,31.17
2018-09-02T05:32:39.702Z,26.47
2018-09-02T05:35:15.533Z,43.87
2018-09-02T05:37:52.257Z,33.57
2018-09-02T05:40:36.977Z,43.00
2018-09-02T05:43:14.648Z,35.53
2018-09-02T05:45:50.511Z,50.00
2018-09-02T05:48:29.271Z,41.13
2018-09-02T05:51:04.908Z,36.40
2018-09-02T05:53:45.711Z,28.33
2018-09-02T05:56:21.465Z,29.03
2018-09-02T06:00:21.406Z,28.50
2018-09-02T06:02:57.290Z,26.23
2018-09-02T06:05:33.186Z,27.53
2018-09-02T06:08:09.109Z,28.10
2018-09-02T06:10:46.684Z,25.13
2018-09-02T06:13:22.309Z,25.70
2018-09-02T06:15:58.536Z,26.17
2018-09-02T06:18:29.600Z,70.20
2018-09-02T06:21:00.488Z,28.60
2018-09-02T06:23:33.568Z,30.07
2018-09-02T06:26:04.387Z,29.67
2018-09-02T06:28:37.228Z,26.93
2018-09-02T06:31:09.130Z,25.97
2018-09-02T06:33:40.866Z,27.03
2018-09-02T06:36:14.132Z,24.27
2018-09-02T06:38:45.098Z,23.27
2018-09-02T06:41:15.938Z,23.87
2018-09-02T06:43:47.948Z,23.97
2018-09-02T06:46:19.172Z,25.53
2018-09-02T06:48:50.101Z,25.30
2018-09-02T06:51:24.522Z,22.40
2018-09-02T06:53:55.522Z,26.17
2018-09-02T06:56:26.333Z,20.40
2018-09-02T06:58:58.102Z,18.77
2018-09-02T07:01:31.289Z,17.70
2018-09-02T07:04:02.531Z,16.13
2018-09-02T07:06:35.903Z,16.07
2018-09-02T07:09:09.081Z,16.70
2018-09-02T07:11:39.916Z,16.63
2018-09-02T07:14:10.734Z,15.03
2018-09-02T07:16:42.293Z,16.13
2018-09-02T07:19:15.596Z,14.93
2018-09-02T07:21:48.283Z,16.47
2018-09-02T07:24:19.507Z,16.13
2018-09-02T07:26:53.981Z,17.00
2018-09-02T07:29:24.921Z,17.57
2018-09-02T07:31:56.549Z,17.37
2018-09-02T07:34:27.388Z,17.60
2018-09-02T07:36:58.240Z,23.47
2018-09-02T07:39:29.076Z,20.23
2018-09-02T07:41:59.938Z,75.67
2018-09-02T07:44:34.588Z,45.80
2018-09-02T07:47:05.458Z,58.97
2018-09-02T07:49:36.405Z,19.53
2018-09-02T07:52:07.230Z,22.20
2018-09-02T07:54:39.325Z,18.77
2018-09-02T07:57:10.454Z,15.50
2018-09-02T07:59:42.195Z,15.87
2018-09-02T08:02:13.044Z,16.03
2018-09-02T08:04:43.860Z,14.20
2018-09-02T08:07:14.752Z,14.13
2018-09-02T08:09:45.557Z,15.07
2018-09-02T08:12:16.527Z,13.37
2018-09-02T08:14:47.588Z,13.97
2018-09-02T08:17:18.833Z,14.47
2018-09-02T08:19:50.314Z,11.67
2018-09-02T08:22:21.403Z,12.03
2018-09-02T08:24:52.591Z,12.57
2018-09-02T08:27:23.411Z,13.93
2018-09-02T08:29:54.202Z,17.43
2018-09-02T08:32:25.440Z,16.83
2018-09-02T08:34:56.325Z,19.60
2018-09-02T08:37:27.217Z,12.13
2018-09-02T08:39:58.199Z,13.17
2018-09-02T08:42:29.056Z,12.87
2018-09-02T08:45:00.327Z,12.50
2018-09-02T08:47:31.173Z,12.03
2018-09-02T08:50:01.982Z,24.70
2018-09-02T08:52:32.848Z,13.90
2018-09-02T08:55:03.727Z,12.87
2018-09-02T08:57:34.569Z,11.23
2018-09-02T09:00:10.409Z,10.60
2018-09-02T09:02:42.408Z,10.00
2018-09-02T09:05:13.659Z,16.30
2018-09-02T09:07:44.833Z,24.50
2018-09-02T09:10:15.771Z,10.27
2018-09-02T09:12:46.602Z,10.27
2018-09-02T09:15:17.395Z,11.13
2018-09-02T09:17:48.530Z,10.43
2018-09-02T09:20:19.451Z,10.37
2018-09-02T09:22:50.360Z,11.10
2018-09-02T09:25:21.183Z,10.10
2018-09-02T09:27:52.407Z,10.67
2018-09-02T09:30:23.179Z,9.73
2018-09-02T09:32:54.219Z,9.73
2018-09-02T09:35:25.728Z,10.30
2018-09-02T09:37:56.627Z,9.37
2018-09-02T09:40:27.522Z,9.50
2018-09-02T09:42:58.989Z,8.93
2018-09-02T09:45:29.902Z,9.53
2018-09-02T09:48:00.761Z,9.73
2018-09-02T09:50:31.553Z,9.80
2018-09-02T09:53:03.219Z,9.80
2018-09-02T09:55:34.388Z,9.70
2018-09-02T09:58:05.485Z,9.70
2018-09-02T10:00:41.274Z,11.23
2018-09-02T10:03:12.141Z,9.67
2018-09-02T10:05:43.933Z,8.40
2018-09-02T10:08:15.333Z,8.37
2018-09-02T10:10:47.547Z,9.83
2018-09-02T10:13:19.015Z,9.23
2018-09-02T10:15:49.830Z,9.20
2018-09-02T10:18:20.911Z,10.73
2018-09-02T10:20:52.175Z,8.50
2018-09-02T10:23:23.052Z,8.60
2018-09-02T10:25:53.857Z,8.10
2018-09-02T10:28:24.790Z,8.93
2018-09-02T10:30:55.576Z,8.67
2018-09-02T10:33:27.699Z,59.77
2018-09-02T10:35:58.715Z,9.57
2018-09-02T10:38:29.633Z,9.37
2018-09-02T10:41:00.497Z,8.97
2018-09-02T10:43:31.763Z,41.63
2018-09-02T10:46:03.631Z,8.97
2018-09-02T10:48:34.533Z,8.30
2018-09-02T10:51:05.400Z,8.37
2018-09-02T10:53:36.336Z,17.37
2018-09-02T10:56:08.316Z,33.50
2018-09-02T10:58:40.383Z,17.87
2018-09-02T11:01:11.858Z,8.10
2018-09-02T11:03:43.461Z,8.33
2018-09-02T11:06:26.667Z,9.60
2018-09-02T11:09:13.013Z,8.40
2018-09-02T11:11:44.213Z,8.90
2018-09-02T11:14:15.868Z,9.60
2018-09-02T11:16:47.097Z,9.77
2018-09-02T11:19:17.944Z,9.20
2018-09-02T11:21:48.718Z,7.77
2018-09-02T11:24:19.586Z,9.07
2018-09-02T11:26:50.440Z,8.93
2018-09-02T11:29:21.925Z,8.30
2018-09-02T11:31:52.802Z,8.80
2018-09-02T11:34:23.752Z,8.77
2018-09-02T11:36:54.562Z,8.47
2018-09-02T11:39:26.997Z,9.40
2018-09-02T11:41:58.670Z,9.63
2018-09-02T11:44:29.614Z,11.17
2018-09-02T11:47:00.848Z,10.37
2018-09-02T11:49:33.888Z,10.60
2018-09-02T11:52:04.898Z,9.87
2018-09-02T11:54:35.800Z,9.80
2018-09-02T11:57:07.282Z,8.77
2018-09-02T11:59:38.763Z,10.57
2018-09-02T12:02:09.594Z,9.60
2018-09-02T12:04:45.260Z,8.17
2018-09-02T12:07:16.436Z,9.97
2018-09-02T12:09:47.320Z,13.03
2018-09-02T12:12:18.636Z,9.30
2018-09-02T12:14:49.572Z,11.03
2018-09-02T12:17:20.455Z,8.70
2018-09-02T12:19:51.362Z,9.20
2018-09-02T12:22:22.270Z,7.67
2018-09-02T12:24:53.606Z,8.83
2018-09-02T12:27:24.492Z,8.80
2018-09-02T12:29:55.295Z,8.33
2018-09-02T12:32:26.292Z,9.10
2018-09-02T12:34:57.194Z,8.10
2018-09-02T12:37:32.901Z,7.57
2018-09-02T12:40:03.807Z,8.80
2018-09-02T12:42:34.755Z,9.37
2018-09-02T12:45:06.633Z,8.70
2018-09-02T12:47:37.582Z,8.30
2018-09-02T12:50:08.629Z,15.90
2018-09-02T12:52:39.415Z,41.43
2018-09-02T12:55:10.544Z,10.70
2018-09-02T12:57:41.995Z,8.57
2018-09-02T13:00:12.840Z,9.07
2018-09-02T13:02:43.622Z,7.57
2018-09-02T13:05:16.738Z,6.80
2018-09-02T13:07:48.714Z,6.97
2018-09-02T13:10:20.242Z,7.17
2018-09-02T13:12:52.202Z,6.87
2018-09-02T13:15:23.483Z,7.47
2018-09-02T13:17:54.963Z,7.60
2018-09-02T13:20:30.333Z,7.03
2018-09-02T13:23:03.809Z,6.87
2018-09-02T13:25:41.067Z,7.63
2018-09-02T13:28:12.230Z,7.43
2018-09-02T13:30:45.028Z,7.07
2018-09-02T13:33:16.064Z,7.90
2018-09-02T13:35:46.959Z,7.93
2018-09-02T13:38:17.808Z,7.00
2018-09-02T13:40:50.492Z,7.30
2018-09-02T13:43:21.313Z,7.97
2018-09-02T13:45:52.407Z,7.30
2018-09-02T13:48:23.405Z,6.90
2018-09-02T13:50:55.145Z,7.33
2018-09-02T13:53:26.105Z,7.43
2018-09-02T13:55:57.011Z,7.23
2018-09-02T13:58:28.381Z,7.83
2018-09-02T14:00:59.220Z,7.30
2018-09-02T14:03:30.697Z,7.37
2018-09-02T14:06:01.529Z,7.30
2018-09-02T14:08:32.292Z,7.63
2018-09-02T14:11:04.049Z,8.17
2018-09-02T14:13:34.994Z,7.87
2018-09-02T14:16:05.914Z,8.90
2018-09-02T14:18:36.691Z,7.63
2018-09-02T14:21:07.541Z,8.03
2018-09-02T14:23:38.333Z,7.50
2018-09-02T14:26:14.200Z,7.33
2018-09-02T14:28:45.016Z,8.80
2018-09-02T14:31:15.852Z,8.10
2018-09-02T14:33:47.258Z,8.30
2018-09-02T14:36:18.101Z,21.30
2018-09-02T14:38:48.879Z,8.90
2018-09-02T14:41:19.775Z,8.07
2018-09-02T14:43:50.588Z,8.90
2018-09-02T14:46:21.520Z,8.50
2018-09-02T14:48:52.623Z,8.50
2018-09-02T14:51:23.496Z,8.73
2018-09-02T14:53:55.217Z,8.60
2018-09-02T14:56:26.865Z,8.13
2018-09-02T14:58:57.900Z,8.20
2018-09-02T15:01:28.886Z,8.77
2018-09-02T15:03:59.751Z,8.03
2018-09-02T15:06:30.723Z,10.07
2018-09-02T15:09:02.791Z,23.67
2018-09-02T15:11:33.701Z,8.30
2018-09-02T15:14:04.687Z,9.00
2018-09-02T15:16:35.708Z,11.67
2018-09-02T15:19:10.020Z,8.90
2018-09-02T15:21:41.069Z,8.87
2018-09-02T15:24:11.868Z,8.53
2018-09-02T15:26:42.741Z,14.07
2018-09-02T15:29:14.426Z,11.37
2018-09-02T15:31:47.914Z,13.27
2018-09-02T15:34:18.681Z,8.27
2018-09-02T15:36:50.121Z,9.00
2018-09-02T15:39:20.970Z,14.40
2018-09-02T15:41:52.026Z,11.60
2018-09-02T15:44:22.931Z,14.70
2018-09-02T15:46:53.768Z,12.17
2018-09-02T15:49:24.584Z,9.70
2018-09-02T15:51:55.685Z,10.33
2018-09-02T15:54:26.454Z,9.80
2018-09-02T15:56:57.346Z,10.27
2018-09-02T15:59:28.211Z,9.47
2018-09-02T16:01:59.024Z,8.47
2018-09-02T16:04:29.797Z,8.37
2018-09-02T16:07:00.742Z,8.13
2018-09-02T16:09:31.667Z,9.00
2018-09-02T16:12:02.525Z,8.40
2018-09-02T16:14:34.324Z,8.37
2018-09-02T16:17:05.972Z,8.23
2018-09-02T16:19:37.490Z,8.53
2018-09-02T16:22:08.315Z,8.63
2018-09-02T16:24:39.113Z,8.33
2018-09-02T16:27:09.978Z,8.13
2018-09-02T16:29:40.938Z,9.13
2018-09-02T16:32:12.296Z,8.90
2018-09-02T16:34:43.241Z,9.10
2018-09-02T16:37:19.126Z,11.53
2018-09-02T16:39:55.047Z,11.47
2018-09-02T16:42:31.748Z,11.20
2018-09-02T16:45:02.826Z,10.00
2018-09-02T16:47:34.340Z,10.60
2018-09-02T16:50:05.313Z,9.17
2018-09-02T16:52:36.152Z,8.53
2018-09-02T16:55:07.959Z,9.07
2018-09-02T16:57:39.493Z,8.93
2018-09-02T17:00:10.747Z,8.67
2018-09-02T17:02:41.585Z,9.03
2018-09-02T17:05:20.053Z,10.90
2018-09-02T17:07:52.485Z,9.40
2018-09-02T17:11:47.891Z,9.80
2018-09-02T17:14:18.889Z,19.73
2018-09-02T17:16:51.058Z,9.57
2018-09-02T17:19:29.826Z,15.67
2018-09-02T17:22:01.398Z,17.33
2018-09-02T17:24:32.325Z,13.40
2018-09-02T17:27:03.175Z,11.73
2018-09-02T17:29:34.089Z,9.77
2018-09-02T17:32:09.348Z,11.30
2018-09-02T17:34:40.212Z,11.03
2018-09-02T17:37:11.310Z,9.90
2018-09-02T17:39:42.152Z,12.37
2018-09-02T17:42:13.768Z,17.63
2018-09-02T17:44:45.465Z,22.20
2018-09-02T17:47:16.269Z,17.00
2018-09-02T17:49:47.133Z,15.93
2018-09-02T17:52:17.956Z,18.67
2018-09-02T17:54:48.943Z,25.90
2018-09-02T17:57:32.602Z,29.40
2018-09-02T18:00:03.636Z,17.17
2018-09-02T18:02:34.550Z,15.90
2018-09-02T18:05:05.493Z,14.03
2018-09-02T18:07:43.875Z,15.17
2018-09-02T18:10:14.863Z,20.50
2018-09-02T18:12:45.810Z,13.57
2018-09-02T18:15:16.843Z,11.30
2018-09-02T18:17:47.648Z,19.47
2018-09-02T18:20:18.564Z,11.40
2018-09-02T18:22:49.363Z,11.13
2018-09-02T18:25:21.506Z,9.93
2018-09-02T18:27:55.486Z,10.80
2018-09-02T18:30:26.842Z,10.10
2018-09-02T18:32:58.403Z,11.93
2018-09-02T18:35:29.929Z,51.70
2018-09-02T18:38:00.791Z,15.10
2018-09-02T18:40:32.542Z,11.33
2018-09-02T18:43:03.368Z,14.80
2018-09-02T18:46:58.848Z,17.57
2018-09-02T18:49:29.713Z,13.27
2018-09-02T18:52:00.661Z,12.77
2018-09-02T18:54:33.411Z,14.00
2018-09-02T18:57:04.376Z,10.50
2018-09-02T18:59:35.353Z,12.80
2018-09-02T19:02:06.460Z,12.20
2018-09-02T19:04:37.388Z,12.70
2018-09-02T19:07:08.746Z,13.93
2018-09-02T19:09:39.715Z,12.77
2018-09-02T19:12:10.829Z,12.50
2018-09-02T19:14:42.435Z,12.37
2018-09-02T19:17:13.560Z,12.90
2018-09-02T19:19:44.360Z,13.20
2018-09-02T19:22:15.303Z,13.67
2018-09-02T19:24:46.100Z,17.03
2018-09-02T19:27:17.641Z,16.50
2018-09-02T19:29:49.235Z,22.30
2018-09-02T19:32:21.060Z,23.03
2018-09-02T19:34:52.055Z,13.23
2018-09-02T19:37:22.947Z,46.50
2018-09-02T19:39:53.795Z,26.57
2018-09-02T19:42:24.706Z,17.17
2018-09-02T19:44:57.126Z,15.67
2018-09-02T19:47:29.208Z,15.33
2018-09-02T19:50:00.809Z,16.30
2018-09-02T19:52:32.602Z,13.50
2018-09-02T19:55:03.753Z,11.80
2018-09-02T19:57:34.838Z,10.80
2018-09-02T20:00:12.067Z,10.37
2018-09-02T20:02:47.818Z,10.17
2018-09-02T20:05:26.092Z,11.93
2018-09-02T20:08:02.913Z,11.13
2018-09-02T20:10:39.152Z,11.17
2018-09-02T20:13:14.996Z,10.80
2018-09-02T20:15:50.662Z,11.50
2018-09-02T20:18:27.371Z,11.77
2018-09-02T20:21:03.270Z,10.27
2018-09-02T20:23:39.164Z,11.63
2018-09-02T20:26:15.192Z,11.83
2018-09-02T20:28:52.225Z,11.23
2018-09-02T20:31:28.227Z,12.20
2018-09-02T20:34:04.044Z,10.57
2018-09-02T20:36:39.837Z,10.20
2018-09-02T20:39:16.470Z,11.87
2018-09-02T20:41:52.204Z,11.07
2018-09-02T20:44:28.208Z,9.40
2018-09-02T20:47:04.099Z,10.70
2018-09-02T20:49:39.729Z,11.27
2018-09-02T20:52:15.527Z,11.30
2018-09-02T20:54:51.649Z,11.00
2018-09-02T20:57:27.474Z,11.00
2018-09-02T21:00:03.445Z,10.43
2018-09-02T21:02:40.079Z,11.23
2018-09-02T21:05:16.785Z,11.13
2018-09-02T21:07:52.921Z,12.10
2018-09-02T21:10:28.899Z,12.07
2018-09-02T21:13:04.873Z,12.13
2018-09-02T21:15:41.510Z,11.30
2018-09-02T21:18:17.263Z,11.47
2018-09-02T21:20:53.662Z,11.97
2018-09-02T21:23:29.434Z,12.10
2018-09-02T21:26:05.441Z,18.23
2018-09-02T21:28:41.375Z,13.37
2018-09-02T21:31:17.622Z,13.37
2018-09-02T21:33:54.818Z,11.70
2018-09-02T21:36:30.832Z,13.27
2018-09-02T21:39:11.656Z,14.77
2018-09-02T21:41:47.714Z,11.70
2018-09-02T21:44:23.619Z,11.33
2018-09-02T21:47:00.336Z,10.40
2018-09-02T21:49:36.079Z,11.07
2018-09-02T21:52:11.883Z,11.40
2018-09-02T21:54:47.756Z,11.90
2018-09-02T21:57:23.889Z,15.13
2018-09-02T22:00:05.542Z,18.10
2018-09-02T22:02:42.973Z,17.20
2018-09-02T22:05:19.171Z,12.80
2018-09-02T22:07:55.089Z,12.23
2018-09-02T22:10:30.857Z,12.17
2018-09-02T22:13:07.231Z,13.87
2018-09-02T22:15:43.477Z,12.70
2018-09-02T22:18:19.890Z,12.37
2018-09-02T22:20:55.833Z,11.93
2018-09-02T22:23:31.732Z,13.60
2018-09-02T22:26:07.463Z,13.27
2018-09-02T22:28:44.029Z,12.97
2018-09-02T22:31:21.439Z,11.67
2018-09-02T22:33:57.578Z,11.87
2018-09-02T22:36:34.277Z,11.57
2018-09-02T22:39:10.253Z,11.47
2018-09-02T22:41:46.152Z,11.57
2018-09-02T22:44:21.964Z,13.80
2018-09-02T22:46:57.725Z,12.53
2018-09-02T22:49:34.464Z,11.90
2018-09-02T22:52:10.242Z,11.50
2018-09-02T22:54:45.941Z,12.17
2018-09-02T22:57:24.144Z,11.27
2018-09-02T23:00:00.304Z,12.00
2018-09-02T23:02:37.036Z,13.50
2018-09-02T23:05:16.693Z,12.03
2018-09-02T23:07:52.682Z,12.80
2018-09-02T23:10:28.485Z,10.90
2018-09-02T23:13:05.080Z,13.13
2018-09-02T23:15:41.086Z,12.17
2018-09-02T23:18:16.834Z,12.77
2018-09-02T23:20:53.208Z,15.23
2018-09-02T23:23:29.062Z,12.50
2018-09-02T23:26:05.346Z,10.50
2018-09-02T23:28:41.105Z,10.87
2018-09-02T23:31:18.114Z,13.27
2018-09-02T23:33:55.121Z,11.90
2018-09-02T23:36:34.085Z,10.60
2018-09-02T23:39:11.550Z,12.53
2018-09-02T23:41:47.455Z,13.63
2018-09-02T23:44:23.250Z,13.60
2018-09-02T23:46:59.388Z,14.27
2018-09-02T23:49:35.301Z,13.70
2018-09-02T23:52:14.346Z,11.87
2018-09-02T23:54:50.048Z,11.40
2018-09-02T23:57:25.915Z,12.27
